Time;durP1;ratioP1;P1;durP2;ratioP2;P2;SDS_P1;SDS_P2;PMS_P1;PMS_P2;Temp;Humidity;BMP_temperature;BMP_pressure;BME280_temperature;BME280_humidity;BME280_pressure;Samples;Min_cycle;Max_cycle;Signal;HPM_P1;HPM_P2
2022/11/15 00:00:14;;;;;;;;;;;4.40;99.90;;;;;;2603808;54;19969;31
2022/11/15 00:03:07;;;;;;;;;;;4.40;99.90;;;;;;2603905;54;19961;31
2022/11/15 00:06:04;;;;;;;;;;;4.40;99.90;;;;;;2702813;39;21174;31
2022/11/15 00:08:56;;;;;;;;;;;4.30;99.90;;;;;;2604092;54;20044;31
2022/11/15 00:11:46;;;;;;;;;;;4.30;99.90;;;;;;2604033;54;20002;31
2022/11/15 00:14:37;;;;;;;;;;;4.40;99.90;;;;;;2603882;54;19965;31
2022/11/15 00:17:30;;;;;;;;;;;4.30;99.90;;;;;;2604019;54;20783;31
2022/11/15 00:20:22;;;;;;;;;;;4.30;99.90;;;;;;2603969;54;19957;31
2022/11/15 00:23:17;;;;;;;;;;;4.30;99.90;;;;;;2604071;54;19997;31
2022/11/15 00:26:09;;;;;;;;;;;4.30;99.90;;;;;;2604026;54;19942;31
2022/11/15 00:29:02;;;;;;;;;;;4.30;99.90;;;;;;2604017;54;19997;31
2022/11/15 00:31:55;;;;;;;;;;;4.20;99.90;;;;;;2603705;54;20079;31
2022/11/15 00:34:48;;;;;;;;;;;4.20;99.90;;;;;;2604067;54;19953;31
2022/11/15 00:37:38;;;;;;;;;;;4.20;99.90;;;;;;2603883;54;19942;31
2022/11/15 00:40:32;;;;;;;;;;;4.10;99.90;;;;;;2604152;54;20003;31
2022/11/15 00:43:26;;;;;;;;;;;4.10;99.90;;;;;;2603765;54;19989;31
2022/11/15 00:46:16;;;;;;;;;;;4.10;99.90;;;;;;2603729;54;19965;31
2022/11/15 00:49:10;;;;;;;;;;;4.10;99.90;;;;;;2603976;54;19993;31
2022/11/15 00:52:03;;;;;;;;;;;4.10;99.90;;;;;;2603660;54;19942;31
2022/11/15 00:54:54;;;;;;;;;;;4.00;99.90;;;;;;2603729;54;20884;31
2022/11/15 00:57:49;;;;;;;;;;;4.00;99.90;;;;;;2603822;54;20049;31
2022/11/15 01:00:41;;;;;;;;;;;4.00;99.90;;;;;;2603796;54;19996;31
2022/11/15 01:03:34;;;;;;;;;;;4.00;99.90;;;;;;2603890;54;19942;31
2022/11/15 01:06:26;;;;;;;;;;;4.00;99.90;;;;;;2603760;54;20734;31
2022/11/15 01:09:19;;;;;;;;;;;4.00;99.90;;;;;;2603738;54;19981;31
2022/11/15 01:12:12;;;;;;;;;;;4.00;99.90;;;;;;2603679;54;20035;31
2022/11/15 01:15:07;;;;;;;;;;;4.00;99.90;;;;;;2603571;54;19985;31
2022/11/15 01:18:00;;;;;;;;;;;4.00;99.90;;;;;;2603828;54;20718;31
2022/11/15 01:20:53;;;;;;;;;;;4.00;99.90;;;;;;2603710;54;19957;31
2022/11/15 01:23:45;;;;;;;;;;;4.00;99.90;;;;;;2603801;54;20046;31
2022/11/15 01:26:35;;;;;;;;;;;4.00;99.90;;;;;;2603587;54;19999;31
2022/11/15 01:29:28;;;;;;;;;;;4.00;99.90;;;;;;2603691;54;19940;31
2022/11/15 01:32:21;;;;;;;;;;;4.00;99.90;;;;;;2603598;54;20014;31
2022/11/15 01:35:14;;;;;;;;;;;4.00;99.90;;;;;;2603843;54;19973;31
2022/11/15 01:38:07;;;;;;;;;;;3.90;99.90;;;;;;2603609;54;20045;31
2022/11/15 01:40:57;;;;;;;;;;;3.90;99.90;;;;;;2603592;54;19958;31
2022/11/15 01:43:50;;;;;;;;;;;3.90;99.90;;;;;;2603882;54;19957;31
2022/11/15 01:46:42;;;;;;;;;;;3.90;99.90;;;;;;2603903;54;19941;31
2022/11/15 01:49:37;;;;;;;;;;;3.90;99.90;;;;;;2603753;54;19941;31
2022/11/15 01:52:30;;;;;;;;;;;3.90;99.90;;;;;;2603704;54;19941;31
2022/11/15 01:55:24;;;;;;;;;;;3.80;99.90;;;;;;2603758;54;20823;31
2022/11/15 01:58:15;;;;;;;;;;;3.80;99.90;;;;;;2603576;54;20797;31
2022/11/15 02:01:06;;;;;;;;;;;3.80;99.90;;;;;;2603646;54;21574;31
2022/11/15 02:03:59;;;;;;;;;;;3.80;99.90;;;;;;2603437;54;19942;31
2022/11/15 02:06:55;;;;;;;;;;;3.70;99.90;;;;;;2603580;54;20757;31
2022/11/15 02:09:47;;;;;;;;;;;3.70;99.90;;;;;;2603748;54;19961;31
2022/11/15 02:12:39;;;;;;;;;;;3.60;99.90;;;;;;2603678;54;20027;31
2022/11/15 02:15:32;;;;;;;;;;;3.60;99.90;;;;;;2603670;54;20069;31
2022/11/15 02:18:25;;;;;;;;;;;3.60;99.90;;;;;;2603758;54;19956;31
2022/11/15 02:21:20;;;;;;;;;;;3.60;99.90;;;;;;2603543;54;20767;31
2022/11/15 02:24:27;;;;;;;;;;;3.60;99.90;;;;;;2603614;54;19973;31
2022/11/15 02:27:25;;;;;;;;;;;3.50;99.90;;;;;;2603784;54;19941;31
2022/11/15 02:30:31;;;;;;;;;;;3.50;99.90;;;;;;2603664;54;19941;31
2022/11/15 02:33:26;;;;;;;;;;;3.50;99.90;;;;;;2603580;54;19996;31
2022/11/15 02:36:21;;;;;;;;;;;3.40;99.90;;;;;;2603233;54;20027;31
2022/11/15 02:39:16;;;;;;;;;;;3.40;99.90;;;;;;2603489;54;19960;31
2022/11/15 02:43:56;;;;;;;;;;;3.40;99.90;;;;;;2603600;54;20729;31
2022/11/15 02:45:21;;;;;;;;;;;3.40;99.90;;;;;;2603602;54;19958;31
2022/11/15 02:48:17;;;;;;;;;;;3.40;99.90;;;;;;2603705;54;19957;31
2022/11/15 02:51:10;;;;;;;;;;;3.40;99.90;;;;;;2603723;54;20701;31
2022/11/15 02:54:03;;;;;;;;;;;3.40;99.90;;;;;;2603095;54;20826;31
2022/11/15 02:56:56;;;;;;;;;;;3.30;99.90;;;;;;2603365;54;19942;31
2022/11/15 02:59:50;;;;;;;;;;;3.40;99.90;;;;;;2603564;54;20049;31
2022/11/15 03:03:04;;;;;;;;;;;3.30;99.90;;;;;;2603479;54;19969;31
2022/11/15 03:06:00;;;;;;;;;;;3.30;99.90;;;;;;2603204;54;19949;31
2022/11/15 03:08:54;;;;;;;;;;;3.30;99.90;;;;;;2603429;54;19956;31
2022/11/15 03:11:47;;;;;;;;;;;3.30;99.90;;;;;;2603297;54;20049;31
2022/11/15 03:14:39;;;;;;;;;;;3.30;99.90;;;;;;2603313;54;19957;31
2022/11/15 03:17:30;;;;;;;;;;;3.30;99.90;;;;;;2603114;54;19958;31
2022/11/15 03:20:23;;;;;;;;;;;3.30;99.90;;;;;;2603343;54;19968;31
2022/11/15 03:23:17;;;;;;;;;;;3.20;99.90;;;;;;2603270;54;19942;31
2022/11/15 03:26:10;;;;;;;;;;;3.20;99.90;;;;;;2603530;54;19996;31
2022/11/15 03:29:03;;;;;;;;;;;3.20;99.90;;;;;;2603260;54;19961;31
2022/11/15 03:31:56;;;;;;;;;;;3.20;99.90;;;;;;2603404;54;20851;31
2022/11/15 03:34:50;;;;;;;;;;;3.20;99.90;;;;;;2603395;54;20729;31
2022/11/15 03:37:43;;;;;;;;;;;3.20;99.90;;;;;;2603482;54;20013;31
2022/11/15 03:40:37;;;;;;;;;;;3.20;99.90;;;;;;2603428;54;19942;31
2022/11/15 03:43:29;;;;;;;;;;;3.20;99.90;;;;;;2603369;54;19961;31
2022/11/15 03:46:23;;;;;;;;;;;3.10;99.90;;;;;;2603306;54;19986;31
2022/11/15 03:49:16;;;;;;;;;;;3.20;99.90;;;;;;2603361;54;19981;31
2022/11/15 03:52:08;;;;;;;;;;;3.20;99.90;;;;;;2603199;54;20000;31
2022/11/15 03:55:02;;;;;;;;;;;3.00;99.90;;;;;;2603450;54;19988;31
2022/11/15 03:57:59;;;;;;;;;;;3.10;99.90;;;;;;2603310;54;19942;31
2022/11/15 04:00:52;;;;;;;;;;;3.00;99.90;;;;;;2603132;54;19980;31
2022/11/15 04:03:45;;;;;;;;;;;3.00;99.90;;;;;;2603123;54;19942;31
2022/11/15 04:06:37;;;;;;;;;;;3.00;99.90;;;;;;2603026;54;19998;31
2022/11/15 04:09:28;;;;;;;;;;;3.00;99.90;;;;;;2603157;54;20030;31
2022/11/15 04:12:30;;;;;;;;;;;3.00;99.90;;;;;;2603042;54;20825;31
2022/11/15 04:15:25;;;;;;;;;;;3.00;99.90;;;;;;2603032;54;20863;31
2022/11/15 04:18:18;;;;;;;;;;;3.00;99.90;;;;;;2603264;54;19997;31
2022/11/15 04:24:15;;;;;;;;;;;3.60;99.90;;;;;;2603150;54;19942;31
2022/11/15 04:27:08;;;;;;;;;;;2.90;99.90;;;;;;2603453;54;19941;31
2022/11/15 04:30:01;;;;;;;;;;;2.90;99.90;;;;;;2603817;54;19942;31
2022/11/15 04:32:56;;;;;;;;;;;2.90;99.90;;;;;;2603767;54;20029;31
2022/11/15 04:37:11;;;;;;;;;;;2.90;99.90;;;;;;2604060;54;19953;31
2022/11/15 04:38:59;;;;;;;;;;;2.90;99.90;;;;;;2603847;54;20045;31
2022/11/15 04:41:52;;;;;;;;;;;2.80;99.90;;;;;;2604049;54;19942;31
2022/11/15 04:44:42;;;;;;;;;;;2.80;99.90;;;;;;2603913;54;19942;31
2022/11/15 04:47:35;;;;;;;;;;;2.80;99.90;;;;;;2604012;54;20004;31
2022/11/15 04:50:30;;;;;;;;;;;2.80;99.90;;;;;;2603770;54;20802;31
2022/11/15 04:53:23;;;;;;;;;;;2.80;99.90;;;;;;2603951;54;20789;31
2022/11/15 04:56:15;;;;;;;;;;;2.80;99.90;;;;;;2603794;54;20902;31
2022/11/15 04:59:07;;;;;;;;;;;2.80;99.90;;;;;;2603984;54;19941;31
2022/11/15 05:01:59;;;;;;;;;;;2.80;99.90;;;;;;2603864;54;20001;31
2022/11/15 05:04:49;;;;;;;;;;;2.80;99.90;;;;;;2603762;54;19949;31
2022/11/15 05:07:43;;;;;;;;;;;2.80;99.90;;;;;;2604029;54;19957;31
2022/11/15 05:10:36;;;;;;;;;;;2.80;99.90;;;;;;2603655;54;20822;31
2022/11/15 05:13:28;;;;;;;;;;;2.80;99.90;;;;;;2603702;54;20792;31
2022/11/15 05:16:22;;;;;;;;;;;2.80;99.90;;;;;;2603707;54;19942;31
2022/11/15 05:19:13;;;;;;;;;;;2.80;99.90;;;;;;2603661;54;20012;31
2022/11/15 05:22:05;;;;;;;;;;;2.70;99.90;;;;;;2603742;54;19942;31
2022/11/15 05:25:00;;;;;;;;;;;2.70;99.90;;;;;;2603792;54;19941;31
2022/11/15 05:27:53;;;;;;;;;;;2.70;99.90;;;;;;2603875;54;20744;31
2022/11/15 05:30:46;;;;;;;;;;;2.60;99.90;;;;;;2603702;54;20709;31
2022/11/15 05:33:38;;;;;;;;;;;2.60;99.90;;;;;;2603680;54;20069;31
2022/11/15 05:36:30;;;;;;;;;;;2.60;99.90;;;;;;2603956;54;19942;31
2022/11/15 05:39:23;;;;;;;;;;;2.50;99.90;;;;;;2603422;54;19941;31
2022/11/15 05:42:17;;;;;;;;;;;2.50;99.90;;;;;;2603823;54;19957;31
2022/11/15 05:45:10;;;;;;;;;;;2.50;99.90;;;;;;2603764;54;19941;31
2022/11/15 05:48:03;;;;;;;;;;;2.50;99.90;;;;;;2603483;54;21496;31
2022/11/15 05:50:56;;;;;;;;;;;2.40;99.90;;;;;;2603822;54;20835;31
2022/11/15 05:53:49;;;;;;;;;;;2.40;99.90;;;;;;2603644;54;19941;31
2022/11/15 05:56:40;;;;;;;;;;;2.40;99.90;;;;;;2603676;54;19958;31
2022/11/15 05:59:35;;;;;;;;;;;2.40;99.90;;;;;;2603902;54;19942;31
2022/11/15 06:02:28;;;;;;;;;;;2.40;99.90;;;;;;2603742;54;19942;31
2022/11/15 06:05:19;;;;;;;;;;;2.40;99.90;;;;;;2603436;54;19985;31
2022/11/15 06:11:17;;;;;;;;;;;2.40;99.90;;;;;;2603742;54;20053;31
2022/11/15 06:14:10;;;;;;;;;;;2.40;99.90;;;;;;2603697;54;19957;31
2022/11/15 06:17:06;;;;;;;;;;;2.40;99.90;;;;;;2603760;54;20039;31
2022/11/15 06:20:06;;;;;;;;;;;2.40;99.90;;;;;;2603792;54;20000;31
2022/11/15 06:23:05;;;;;;;;;;;2.40;99.90;;;;;;2603767;54;19997;31
2022/11/15 06:26:00;;;;;;;;;;;2.40;99.90;;;;;;2773916;31;21645;31
2022/11/15 06:28:53;;;;;;;;;;;2.30;99.90;;;;;;2622265;46;19942;31
2022/11/15 06:31:44;;;;;;;;;;;2.40;99.90;;;;;;2702273;39;20978;31
2022/11/15 06:34:38;;;;;;;;;;;2.40;99.90;;;;;;2603663;54;20775;31
2022/11/15 06:37:34;;;;;;;;;;;2.40;99.90;;;;;;2603696;54;19973;31
2022/11/15 06:40:27;;;;;;;;;;;2.40;99.90;;;;;;2603708;54;19941;31
2022/11/15 06:43:22;;;;;;;;;;;2.40;99.90;;;;;;2603681;54;19941;31
2022/11/15 06:46:17;;;;;;;;;;;2.40;99.90;;;;;;2603638;54;20720;31
2022/11/15 06:49:11;;;;;;;;;;;2.40;99.90;;;;;;2603691;54;20786;31
2022/11/15 06:52:10;;;;;;;;;;;2.50;99.90;;;;;;2702245;39;21140;31
2022/11/15 06:55:06;;;;;;;;;;;2.50;99.90;;;;;;2603567;54;20026;31
2022/11/15 06:57:59;;;;;;;;;;;2.60;99.90;;;;;;2603457;54;19941;31
2022/11/15 07:00:54;;;;;;;;;;;2.60;99.90;;;;;;2603383;54;20004;31
2022/11/15 07:03:46;;;;;;;;;;;2.70;99.90;;;;;;2603730;54;19997;31
2022/11/15 07:06:39;;;;;;;;;;;2.80;99.90;;;;;;2603527;54;20747;31
2022/11/15 07:09:31;;;;;;;;;;;3.00;99.90;;;;;;2603510;54;19957;31
2022/11/15 07:12:28;;;;;;;;;;;3.50;99.90;;;;;;2603615;54;19966;31
2022/11/15 07:15:21;;;;;;;;;;;4.10;99.90;;;;;;2603412;54;19997;31
2022/11/15 07:18:14;;;;;;;;;;;4.80;99.90;;;;;;2603538;54;19985;31
2022/11/15 07:21:09;;;;;;;;;;;5.40;99.90;;;;;;2603450;54;19942;31
2022/11/15 07:24:03;;;;;;;;;;;6.00;99.90;;;;;;2603527;54;20488;31
2022/11/15 07:26:56;;;;;;;;;;;6.50;99.90;;;;;;2603400;54;19956;31
2022/11/15 07:29:52;;;;;;;;;;;7.00;99.90;;;;;;2603406;54;20739;31
2022/11/15 07:32:46;;;;;;;;;;;7.40;99.90;;;;;;2603454;54;19961;31
2022/11/15 07:35:39;;;;;;;;;;;7.80;99.90;;;;;;2603214;54;20798;31
2022/11/15 07:38:32;;;;;;;;;;;8.00;99.90;;;;;;2603338;54;19977;31
2022/11/15 07:41:34;;;;;;;;;;;8.50;99.90;;;;;;2603268;54;19941;31
2022/11/15 07:44:27;;;;;;;;;;;8.80;99.90;;;;;;2603211;54;20761;31
2022/11/15 07:47:25;;;;;;;;;;;9.00;99.90;;;;;;2603263;54;20049;31
2022/11/15 07:50:22;;;;;;;;;;;9.20;99.90;;;;;;2603112;54;19941;31
2022/11/15 07:53:14;;;;;;;;;;;9.60;99.90;;;;;;2603294;54;20741;31
2022/11/15 07:56:08;;;;;;;;;;;9.80;99.90;;;;;;2603155;54;19942;31
2022/11/15 07:59:02;;;;;;;;;;;10.10;99.90;;;;;;2603369;54;19941;31
2022/11/15 08:01:55;;;;;;;;;;;10.20;99.90;;;;;;2603524;54;19943;31
2022/11/15 08:04:48;;;;;;;;;;;10.50;99.90;;;;;;2604185;54;19935;31
2022/11/15 08:07:45;;;;;;;;;;;10.80;99.90;;;;;;2603990;54;19938;31
2022/11/15 08:10:39;;;;;;;;;;;11.00;99.90;;;;;;2603996;54;19946;31
2022/11/15 08:13:33;;;;;;;;;;;11.10;99.90;;;;;;2604183;54;19942;31
2022/11/15 08:16:27;;;;;;;;;;;11.20;99.90;;;;;;2603938;54;19938;31
2022/11/15 08:19:21;;;;;;;;;;;11.40;99.90;;;;;;2604190;54;20714;31
2022/11/15 08:22:15;;;;;;;;;;;11.50;99.90;;;;;;2604159;54;20734;31
2022/11/15 08:25:12;;;;;;;;;;;11.50;99.90;;;;;;2604115;54;19935;31
2022/11/15 08:28:05;;;;;;;;;;;11.60;99.90;;;;;;2603963;54;20718;31
2022/11/15 08:30:57;;;;;;;;;;;11.70;99.90;;;;;;2604118;54;19934;31
2022/11/15 08:33:52;;;;;;;;;;;11.70;99.90;;;;;;2604026;54;19934;31
2022/11/15 08:36:46;;;;;;;;;;;11.80;99.90;;;;;;2603989;54;19942;31
2022/11/15 08:39:40;;;;;;;;;;;11.70;99.90;;;;;;2603749;54;20766;31
2022/11/15 08:42:36;;;;;;;;;;;11.80;99.90;;;;;;2604028;54;20851;31
2022/11/15 08:45:30;;;;;;;;;;;12.00;99.90;;;;;;2604006;54;19946;31
2022/11/15 08:48:22;;;;;;;;;;;12.10;99.90;;;;;;2604031;54;20936;31
2022/11/15 08:51:16;;;;;;;;;;;12.20;99.90;;;;;;2603992;54;20794;31
2022/11/15 08:54:08;;;;;;;;;;;12.20;99.90;;;;;;2604091;54;19994;31
2022/11/15 08:57:04;;;;;;;;;;;12.40;99.90;;;;;;2603935;54;20817;31
2022/11/15 08:59:59;;;;;;;;;;;12.50;99.90;;;;;;2604003;54;20808;31
2022/11/15 09:02:51;;;;;;;;;;;12.70;99.90;;;;;;2702533;39;20989;31
2022/11/15 09:05:44;;;;;;;;;;;12.80;99.90;;;;;;2603928;54;19939;31
2022/11/15 09:08:37;;;;;;;;;;;12.90;99.90;;;;;;2603838;54;19934;31
2022/11/15 09:11:43;;;;;;;;;;;12.90;99.90;;;;;;2603900;54;19935;31
2022/11/15 09:14:36;;;;;;;;;;;13.00;99.90;;;;;;2603746;54;19938;31
2022/11/15 09:17:37;;;;;;;;;;;13.20;99.90;;;;;;2603598;54;20768;31
2022/11/15 09:20:31;;;;;;;;;;;13.30;99.90;;;;;;2603837;54;19942;31
2022/11/15 09:23:24;;;;;;;;;;;13.40;99.90;;;;;;2603753;54;20802;31
2022/11/15 09:26:20;;;;;;;;;;;13.50;99.90;;;;;;2603766;54;19938;31
2022/11/15 09:29:13;;;;;;;;;;;13.50;99.90;;;;;;2603608;54;19934;31
2022/11/15 09:32:04;;;;;;;;;;;13.50;99.90;;;;;;2603718;54;20001;31
2022/11/15 09:35:01;;;;;;;;;;;13.60;99.90;;;;;;2603617;54;20761;31
2022/11/15 09:37:55;;;;;;;;;;;13.50;99.90;;;;;;2603912;54;20688;31
2022/11/15 09:40:48;;;;;;;;;;;13.60;99.90;;;;;;2603801;54;20822;31
2022/11/15 09:43:44;;;;;;;;;;;13.60;99.90;;;;;;2603705;54;20802;31
2022/11/15 09:46:38;;;;;;;;;;;13.60;99.90;;;;;;2603797;54;19986;31
2022/11/15 09:49:35;;;;;;;;;;;13.70;99.90;;;;;;2603474;54;19978;31
2022/11/15 09:52:25;;;;;;;;;;;13.80;99.90;;;;;;2603493;54;20789;31
2022/11/15 09:55:00;;;;;;;;;;;13.80;99.90;;;;;;2603840;54;19997;31
2022/11/15 09:57:42;;;;;;;;;;;13.80;99.90;;;;;;2621873;46;19946;31
2022/11/15 10:00:18;;;;;;;;;;;13.80;99.90;;;;;;2622139;46;19941;31
2022/11/15 10:03:15;;;;;;;;;;;13.80;99.90;;;;;;2603514;54;20734;31
2022/11/15 10:05:50;;;;;;;;;;;13.80;99.90;;;;;;2603615;54;20856;31
2022/11/15 10:08:29;;;;;;;;;;;13.90;99.90;;;;;;2603714;54;19941;31
2022/11/15 10:11:04;;;;;;;;;;;13.90;99.90;;;;;;2603454;54;19935;31
2022/11/15 10:14:04;;;;;;;;;;;13.90;99.90;;;;;;2603457;54;20694;31
2022/11/15 10:16:54;;;;;;;;;;;13.90;99.90;;;;;;2603422;54;19942;31
2022/11/15 10:19:33;;;;;;;;;;;14.00;99.90;;;;;;2603426;54;20835;31
2022/11/15 10:22:09;;;;;;;;;;;14.00;99.90;;;;;;2602583;54;19935;31
2022/11/15 10:24:47;;;;;;;;;;;14.00;99.90;;;;;;2603353;54;19989;31
2022/11/15 10:27:24;;;;;;;;;;;14.00;99.90;;;;;;2603537;54;19941;31
2022/11/15 10:29:58;;;;;;;;;;;14.00;99.90;;;;;;2603506;54;20720;31
2022/11/15 10:32:35;;;;;;;;;;;14.00;99.90;;;;;;2603488;54;20773;31
2022/11/15 10:35:20;;;;;;;;;;;13.90;99.90;;;;;;2622100;46;19950;31
2022/11/15 10:37:54;;;;;;;;;;;13.90;99.90;;;;;;2622165;46;19993;31
2022/11/15 10:40:28;;;;;;;;;;;13.90;99.90;;;;;;2603396;54;19942;31
2022/11/15 10:43:07;;;;;;;;;;;14.00;99.90;;;;;;2621597;46;20683;31
2022/11/15 10:45:43;;;;;;;;;;;14.00;99.90;;;;;;2621953;46;19935;31
2022/11/15 10:48:20;;;;;;;;;;;14.00;99.90;;;;;;2603288;54;20014;31
2022/11/15 10:50:58;;;;;;;;;;;14.00;99.90;;;;;;2621612;46;20037;31
2022/11/15 10:53:40;;;;;;;;;;;13.90;99.90;;;;;;2603354;54;19971;31
2022/11/15 10:56:15;;;;;;;;;;;13.90;99.90;;;;;;2602576;54;21603;31
2022/11/15 10:58:53;;;;;;;;;;;13.80;99.90;;;;;;2621449;46;20803;31
2022/11/15 11:01:31;;;;;;;;;;;13.80;99.90;;;;;;2603225;54;20777;31
2022/11/15 11:04:07;;;;;;;;;;;13.70;99.90;;;;;;2603271;54;20845;31
2022/11/15 11:06:44;;;;;;;;;;;13.70;99.90;;;;;;2603277;54;20740;31
2022/11/15 11:09:30;;;;;;;;;;;13.60;99.90;;;;;;2603156;54;19935;31
2022/11/15 11:12:06;;;;;;;;;;;13.50;99.90;;;;;;2621730;46;20753;31
2022/11/15 11:14:41;;;;;;;;;;;13.50;99.90;;;;;;2603470;54;19935;31
2022/11/15 11:17:17;;;;;;;;;;;13.40;99.90;;;;;;2614886;46;19935;31
2022/11/15 11:20:04;;;;;;;;;;;13.30;99.90;;;;;;2621919;46;20021;31
2022/11/15 11:22:40;;;;;;;;;;;13.30;99.90;;;;;;2603398;54;20732;31
2022/11/15 11:25:21;;;;;;;;;;;13.20;99.90;;;;;;2603305;54;20718;31
2022/11/15 11:28:00;;;;;;;;;;;13.20;99.90;;;;;;2603302;54;19941;31
2022/11/15 11:30:37;;;;;;;;;;;13.20;99.90;;;;;;2602997;54;19996;31
2022/11/15 11:33:13;;;;;;;;;;;13.20;99.90;;;;;;2603618;54;19934;31
2022/11/15 11:35:53;;;;;;;;;;;13.20;99.90;;;;;;2622069;47;20793;31
2022/11/15 11:38:33;;;;;;;;;;;13.20;99.90;;;;;;2604117;54;19942;31
2022/11/15 11:41:12;;;;;;;;;;;13.10;99.90;;;;;;2604160;54;19956;31
2022/11/15 11:43:49;;;;;;;;;;;13.10;99.90;;;;;;2603958;54;20764;31
2022/11/15 11:46:50;;;;;;;;;;;13.20;99.90;;;;;;2604046;54;19934;31
2022/11/15 11:49:27;;;;;;;;;;;13.20;99.90;;;;;;2603763;54;20832;31
2022/11/15 11:52:05;;;;;;;;;;;13.20;99.90;;;;;;2603868;54;20722;31
2022/11/15 11:54:41;;;;;;;;;;;13.20;99.90;;;;;;2603876;54;19985;31
2022/11/15 11:57:28;;;;;;;;;;;13.20;99.90;;;;;;2604074;54;19934;31
2022/11/15 12:00:04;;;;;;;;;;;13.20;99.90;;;;;;2622641;46;19942;31
2022/11/15 12:02:46;;;;;;;;;;;13.20;99.90;;;;;;2604137;54;20770;31
2022/11/15 12:05:23;;;;;;;;;;;13.20;99.90;;;;;;2604188;54;19941;31
2022/11/15 12:07:58;;;;;;;;;;;13.20;99.90;;;;;;2622826;46;19941;31
2022/11/15 12:10:37;;;;;;;;;;;13.20;99.90;;;;;;2604101;54;19934;31
2022/11/15 12:13:17;;;;;;;;;;;13.20;99.90;;;;;;2603910;54;19993;31
2022/11/15 12:15:56;;;;;;;;;;;13.20;99.90;;;;;;2622275;46;19935;31
2022/11/15 12:18:30;;;;;;;;;;;13.20;99.90;;;;;;2604172;54;20760;31
2022/11/15 12:21:08;;;;;;;;;;;13.20;99.90;;;;;;2604172;54;19938;31
2022/11/15 12:23:43;;;;;;;;;;;13.20;99.90;;;;;;2603986;54;20809;31
2022/11/15 12:26:20;;;;;;;;;;;13.20;99.90;;;;;;2603151;54;19946;31
2022/11/15 12:28:57;;;;;;;;;;;13.20;99.90;;;;;;2603730;54;19935;31
2022/11/15 12:31:40;;;;;;;;;;;13.20;99.90;;;;;;2622686;46;19938;31
2022/11/15 12:34:20;;;;;;;;;;;13.20;99.90;;;;;;2603920;54;20803;31
2022/11/15 12:36:54;;;;;;;;;;;13.20;99.90;;;;;;2603981;54;19957;31
2022/11/15 12:39:44;;;;;;;;;;;13.20;99.90;;;;;;2603756;54;19946;31
2022/11/15 12:42:33;;;;;;;;;;;13.20;99.90;;;;;;2622373;46;20714;31
2022/11/15 12:45:25;;;;;;;;;;;13.10;99.90;;;;;;2603860;54;19934;31
2022/11/15 12:48:00;;;;;;;;;;;13.10;99.90;;;;;;2622162;46;20021;31
2022/11/15 12:50:49;;;;;;;;;;;13.10;99.90;;;;;;2603866;54;19941;31
2022/11/15 12:53:30;;;;;;;;;;;13.20;99.90;;;;;;2622551;46;20798;31
2022/11/15 12:56:12;;;;;;;;;;;13.10;99.90;;;;;;2603803;54;19939;31
2022/11/15 12:58:48;;;;;;;;;;;13.10;99.90;;;;;;2603859;54;19935;31
2022/11/15 13:01:37;;;;;;;;;;;13.10;99.90;;;;;;2622527;46;19965;31
2022/11/15 13:04:15;;;;;;;;;;;13.10;99.90;;;;;;2622258;46;19962;31
2022/11/15 13:06:51;;;;;;;;;;;13.10;99.90;;;;;;2603952;54;20737;31
2022/11/15 13:09:40;;;;;;;;;;;13.10;99.90;;;;;;2621961;46;20720;31
2022/11/15 13:12:15;;;;;;;;;;;13.10;99.90;;;;;;2622435;46;20841;31
2022/11/15 13:14:51;;;;;;;;;;;13.10;99.90;;;;;;2603121;54;19942;31
2022/11/15 13:17:33;;;;;;;;;;;13.10;99.90;;;;;;2603874;54;20729;31
2022/11/15 13:20:22;;;;;;;;;;;13.10;99.90;;;;;;2603928;54;21276;31
2022/11/15 13:23:02;;;;;;;;;;;13.10;99.90;;;;;;2622018;46;19940;31
2022/11/15 13:25:50;;;;;;;;;;;13.10;99.90;;;;;;2603434;54;20013;31
2022/11/15 13:28:27;;;;;;;;;;;13.10;99.90;;;;;;2608528;46;19958;31
2022/11/15 13:31:01;;;;;;;;;;;13.10;99.90;;;;;;2603842;54;19985;31
2022/11/15 13:33:36;;;;;;;;;;;13.10;99.90;;;;;;2622160;46;19934;31
2022/11/15 13:36:11;;;;;;;;;;;13.10;99.90;;;;;;2603747;54;19935;31
2022/11/15 13:38:48;;;;;;;;;;;13.10;99.90;;;;;;2603550;54;20707;31
2022/11/15 13:43:55;;;;;;;;;;;13.10;99.90;;;;;;2621829;46;19934;31
2022/11/15 13:46:29;;;;;;;;;;;13.00;99.90;;;;;;2622453;46;20767;31
2022/11/15 13:49:03;;;;;;;;;;;13.00;99.90;;;;;;2603960;54;20718;31
2022/11/15 13:51:38;;;;;;;;;;;13.00;99.90;;;;;;2622163;46;19934;31
2022/11/15 13:54:17;;;;;;;;;;;13.00;99.90;;;;;;2622229;46;20042;31
2022/11/15 13:56:55;;;;;;;;;;;13.00;99.90;;;;;;2622098;46;19946;31
2022/11/15 13:59:32;;;;;;;;;;;13.00;99.90;;;;;;2602399;54;19993;31
2022/11/15 14:02:06;;;;;;;;;;;13.00;99.90;;;;;;2603710;54;19965;31
2022/11/15 14:04:41;;;;;;;;;;;13.00;99.90;;;;;;2622112;46;20723;31
2022/11/15 14:07:19;;;;;;;;;;;13.00;99.90;;;;;;2621791;46;20013;31
2022/11/15 14:09:57;;;;;;;;;;;12.90;99.90;;;;;;2622257;46;19963;31
2022/11/15 14:12:32;;;;;;;;;;;12.90;99.90;;;;;;2622092;46;20726;31
2022/11/15 14:17:40;;;;;;;;;;;12.80;99.90;;;;;;2603442;54;19942;31
2022/11/15 14:20:30;;;;;;;;;;;12.80;99.90;;;;;;2621689;46;20734;31
2022/11/15 14:23:07;;;;;;;;;;;12.70;99.90;;;;;;2603711;54;19939;31
2022/11/15 14:25:44;;;;;;;;;;;12.70;99.90;;;;;;2603235;54;20803;31
2022/11/15 14:28:19;;;;;;;;;;;12.70;99.90;;;;;;2603418;54;19935;31
2022/11/15 14:30:55;;;;;;;;;;;12.70;99.90;;;;;;2603581;54;19946;31
2022/11/15 14:33:32;;;;;;;;;;;12.60;99.90;;;;;;2603257;54;19935;31
2022/11/15 14:36:10;;;;;;;;;;;12.60;99.90;;;;;;2603593;54;19935;31
2022/11/15 14:38:46;;;;;;;;;;;12.50;99.90;;;;;;2603510;54;20763;31
2022/11/15 14:41:23;;;;;;;;;;;12.50;99.90;;;;;;2621924;46;20776;31
2022/11/15 14:43:58;;;;;;;;;;;12.50;99.90;;;;;;2603370;54;19942;31
2022/11/15 14:46:32;;;;;;;;;;;12.50;99.90;;;;;;2603365;54;20053;31
2022/11/15 14:49:05;;;;;;;;;;;12.40;99.90;;;;;;2603616;54;19931;31
2022/11/15 14:51:41;;;;;;;;;;;12.40;99.90;;;;;;2602801;54;20001;31
2022/11/15 14:54:17;;;;;;;;;;;12.30;99.90;;;;;;2602591;54;20005;31
2022/11/15 14:56:54;;;;;;;;;;;12.30;99.90;;;;;;2622071;46;19934;31
2022/11/15 14:59:29;;;;;;;;;;;12.20;99.90;;;;;;2621727;46;20748;31
2022/11/15 15:02:05;;;;;;;;;;;12.20;99.90;;;;;;2622051;46;19946;31
2022/11/15 15:04:40;;;;;;;;;;;12.10;99.90;;;;;;2603309;54;20781;31
2022/11/15 15:07:15;;;;;;;;;;;12.10;99.90;;;;;;2603409;54;19977;31
2022/11/15 15:09:52;;;;;;;;;;;12.00;99.90;;;;;;2603435;54;19989;31
2022/11/15 15:12:50;;;;;;;;;;;12.00;99.90;;;;;;2603173;54;19934;31
2022/11/15 15:15:25;;;;;;;;;;;11.90;99.90;;;;;;2603326;54;19966;31
2022/11/15 15:17:59;;;;;;;;;;;11.80;99.90;;;;;;2621873;46;19985;31
2022/11/15 15:20:33;;;;;;;;;;;11.80;99.90;;;;;;2603308;54;19990;31
2022/11/15 15:23:08;;;;;;;;;;;11.70;99.90;;;;;;2617665;46;19942;31
2022/11/15 15:25:43;;;;;;;;;;;11.60;99.90;;;;;;2603394;54;19935;31
2022/11/15 15:28:20;;;;;;;;;;;11.50;99.90;;;;;;2603132;54;20815;31
2022/11/15 15:30:54;;;;;;;;;;;11.40;99.90;;;;;;2603183;54;19934;31
2022/11/15 15:33:28;;;;;;;;;;;11.30;99.90;;;;;;2603416;54;19938;31
2022/11/15 15:36:02;;;;;;;;;;;11.30;99.90;;;;;;2621908;47;19966;31
2022/11/15 15:38:36;;;;;;;;;;;11.30;99.90;;;;;;2603138;54;19934;31
2022/11/15 15:41:11;;;;;;;;;;;11.30;99.90;;;;;;2602968;54;20798;31
2022/11/15 15:43:48;;;;;;;;;;;11.20;99.90;;;;;;2621705;47;19934;31
2022/11/15 15:46:23;;;;;;;;;;;11.20;99.90;;;;;;2621682;47;21603;31
2022/11/15 15:48:57;;;;;;;;;;;11.10;99.90;;;;;;2603199;54;19946;31
2022/11/15 15:51:31;;;;;;;;;;;11.00;99.90;;;;;;2603142;54;20832;31
2022/11/15 15:54:05;;;;;;;;;;;10.90;99.90;;;;;;2621281;47;19942;31
2022/11/15 15:56:39;;;;;;;;;;;10.80;99.90;;;;;;2621670;47;20781;31
2022/11/15 15:59:19;;;;;;;;;;;10.80;99.90;;;;;;2603247;54;20000;31
2022/11/15 16:01:53;;;;;;;;;;;10.70;99.90;;;;;;2602941;54;19946;31
2022/11/15 16:04:26;;;;;;;;;;;10.70;99.90;;;;;;2603192;54;20799;31
2022/11/15 16:07:01;;;;;;;;;;;10.60;99.90;;;;;;2603300;54;19957;31
2022/11/15 16:12:21;;;;;;;;;;;10.50;99.90;;;;;;2621186;47;20776;31
2022/11/15 16:14:57;;;;;;;;;;;10.40;99.90;;;;;;2603016;54;19990;31
2022/11/15 16:17:33;;;;;;;;;;;10.40;99.90;;;;;;2603326;54;19950;31
2022/11/15 16:20:07;;;;;;;;;;;10.30;99.90;;;;;;2604165;47;19938;31
2022/11/15 16:22:41;;;;;;;;;;;10.20;99.90;;;;;;2603274;54;19946;31
2022/11/15 16:25:16;;;;;;;;;;;10.10;99.90;;;;;;2604233;54;19938;31
2022/11/15 16:27:50;;;;;;;;;;;10.10;99.90;;;;;;2603848;54;19934;31
2022/11/15 16:30:27;;;;;;;;;;;10.00;99.90;;;;;;2603941;54;19938;31
2022/11/15 16:33:01;;;;;;;;;;;9.90;99.90;;;;;;2604113;54;20722;31
2022/11/15 16:35:34;;;;;;;;;;;9.80;99.90;;;;;;2603627;54;19938;31
2022/11/15 16:38:08;;;;;;;;;;;9.80;99.90;;;;;;2604075;54;19939;31
2022/11/15 16:40:42;;;;;;;;;;;9.80;99.90;;;;;;2603985;54;19935;31
2022/11/15 16:43:18;;;;;;;;;;;9.70;99.90;;;;;;2603637;54;20742;31
2022/11/15 16:45:55;;;;;;;;;;;9.80;99.90;;;;;;2603612;54;19941;31